Argus, California
Current Conditions -  °F | °C
As of 12:56 PM on Friday 24 Oct 2014 (Local Time) from KNID Reporting Station
Clear Clear  
Wind Chill: 82°   Ceiling: Unl
Heat Index: 82°   Visibility: 10mi
Dew Point: 25°   Wind: 5mph
Humidity: 12%   Direction: 50°NE
Pressure: 30.03"   Gusts: NA
Location:  35.6496°N, 117.375°W
Report Text: KNID 241956Z 05004KT 10SM CLR 28/M04 A3003 RMK AO2 SLP155 T02781039 $
Loading
Personal Weather Stations






























Interactive Weather Map New forecast layout! Learn more

10-Day Weather Forecast

Advertisements
Track Severe Weather on mobile